Sequoia National Park, California
Current Conditions -  °F | °C
As of 9:35 PM on Sunday 21 Dec 2014 (Local Time) from KVIS Reporting Station
Overcast Overcast  
Wind Chill: 13°   Ceiling: 2200
Heat Index: 13°   Visibility: 2.5mi
Dew Point:   Wind: 3mph
Humidity: 77%   Direction: 190°S
Pressure: 30.27"   Gusts: NA
Location:  36.5932°N, 118.838°W
Report Text: KVIS 220535Z AUTO 19003KT 2 1/2SM OVC022 13/09 A3027 RMK AO1
Loading
Personal Weather Stations






























Interactive Weather Map New forecast layout! Learn more

10-Day Weather Forecast

Advertisements
Track Severe Weather on mobile